sensor_id;sensor_type;location;lat;lon;timestamp;P1;durP1;ratioP1;P2;durP2;ratioP2
53751;SDS011;41095;53.090;6.692;2023-04-08T00:01:01;10.82;;;9.50;;
53751;SDS011;41095;53.090;6.692;2023-04-08T00:03:27;10.18;;;8.38;;
53751;SDS011;41095;53.090;6.692;2023-04-08T00:05:52;9.90;;;8.65;;
53751;SDS011;41095;53.090;6.692;2023-04-08T00:08:18;9.73;;;8.07;;
53751;SDS011;41095;53.090;6.692;2023-04-08T00:10:44;10.18;;;8.30;;
53751;SDS011;41095;53.090;6.692;2023-04-08T00:13:09;9.90;;;8.77;;
53751;SDS011;41095;53.090;6.692;2023-04-08T00:15:35;10.27;;;9.18;;
53751;SDS011;41095;53.090;6.692;2023-04-08T00:18:01;12.02;;;9.27;;
53751;SDS011;41095;53.090;6.692;2023-04-08T00:20:27;11.82;;;9.50;;
53751;SDS011;41095;53.090;6.692;2023-04-08T00:22:53;10.63;;;9.57;;
53751;SDS011;41095;53.090;6.692;2023-04-08T00:25:19;12.07;;;9.98;;
53751;SDS011;41095;53.090;6.692;2023-04-08T00:27:44;13.43;;;10.25;;
53751;SDS011;41095;53.090;6.692;2023-04-08T00:30:10;11.55;;;10.07;;
53751;SDS011;41095;53.090;6.692;2023-04-08T00:32:36;14.70;;;11.00;;
53751;SDS011;41095;53.090;6.692;2023-04-08T00:35:02;12.80;;;11.27;;
53751;SDS011;41095;53.090;6.692;2023-04-08T00:37:28;13.98;;;10.52;;
53751;SDS011;41095;53.090;6.692;2023-04-08T00:39:55;16.40;;;11.73;;
53751;SDS011;41095;53.090;6.692;2023-04-08T00:42:21;13.15;;;11.43;;
53751;SDS011;41095;53.090;6.692;2023-04-08T00:44:47;16.02;;;12.32;;
53751;SDS011;41095;53.090;6.692;2023-04-08T00:47:13;12.35;;;10.93;;
53751;SDS011;41095;53.090;6.692;2023-04-08T00:49:40;13.10;;;11.70;;
53751;SDS011;41095;53.090;6.692;2023-04-08T00:52:06;13.48;;;12.15;;
53751;SDS011;41095;53.090;6.692;2023-04-08T00:54:32;13.75;;;11.55;;
53751;SDS011;41095;53.090;6.692;2023-04-08T00:56:57;16.80;;;12.20;;
53751;SDS011;41095;53.090;6.692;2023-04-08T00:59:26;13.05;;;11.75;;
53751;SDS011;41095;53.090;6.692;2023-04-08T01:10:26;15.75;;;13.23;;
53751;SDS011;41095;53.090;6.692;2023-04-08T01:12:56;14.23;;;12.73;;
53751;SDS011;41095;53.090;6.692;2023-04-08T01:15:28;18.48;;;12.43;;
53751;SDS011;41095;53.090;6.692;2023-04-08T01:17:55;14.27;;;11.65;;
53751;SDS011;41095;53.090;6.692;2023-04-08T01:20:23;15.20;;;11.52;;
53751;SDS011;41095;53.090;6.692;2023-04-08T01:28:12;14.98;;;13.13;;
53751;SDS011;41095;53.090;6.692;2023-04-08T01:30:40;14.38;;;10.20;;
53751;SDS011;41095;53.090;6.692;2023-04-08T01:33:11;15.60;;;12.43;;
53751;SDS011;41095;53.090;6.692;2023-04-08T01:35:39;16.83;;;12.85;;
53751;SDS011;41095;53.090;6.692;2023-04-08T01:38:06;13.88;;;12.27;;
53751;SDS011;41095;53.090;6.692;2023-04-08T01:40:34;15.38;;;12.48;;
53751;SDS011;41095;53.090;6.692;2023-04-08T01:43:01;15.77;;;12.55;;
53751;SDS011;41095;53.090;6.692;2023-04-08T01:45:30;13.02;;;11.73;;
53751;SDS011;41095;53.090;6.692;2023-04-08T01:47:56;14.88;;;12.00;;
53751;SDS011;41095;53.090;6.692;2023-04-08T01:50:24;15.30;;;13.52;;
53751;SDS011;41095;53.090;6.692;2023-04-08T01:52:50;15.32;;;11.40;;
53751;SDS011;41095;53.090;6.692;2023-04-08T01:55:18;17.02;;;13.55;;
53751;SDS011;41095;53.090;6.692;2023-04-08T01:57:48;16.63;;;12.77;;
53751;SDS011;41095;53.090;6.692;2023-04-08T02:00:18;16.08;;;12.35;;
53751;SDS011;41095;53.090;6.692;2023-04-08T02:02:46;16.50;;;14.30;;
53751;SDS011;41095;53.090;6.692;2023-04-08T02:05:13;14.60;;;12.50;;
53751;SDS011;41095;53.090;6.692;2023-04-08T02:07:39;15.75;;;13.00;;
53751;SDS011;41095;53.090;6.692;2023-04-08T02:10:05;14.95;;;13.00;;
53751;SDS011;41095;53.090;6.692;2023-04-08T02:12:34;15.98;;;14.38;;
53751;SDS011;41095;53.090;6.692;2023-04-08T02:15:00;14.75;;;12.80;;
53751;SDS011;41095;53.090;6.692;2023-04-08T02:17:37;17.73;;;14.45;;
53751;SDS011;41095;53.090;6.692;2023-04-08T02:22:58;16.25;;;14.57;;
53751;SDS011;41095;53.090;6.692;2023-04-08T02:25:36;15.55;;;13.88;;
53751;SDS011;41095;53.090;6.692;2023-04-08T02:28:05;17.45;;;14.35;;
53751;SDS011;41095;53.090;6.692;2023-04-08T02:30:34;18.33;;;14.65;;
53751;SDS011;41095;53.090;6.692;2023-04-08T02:33:02;16.85;;;14.35;;
53751;SDS011;41095;53.090;6.692;2023-04-08T02:35:29;21.48;;;15.95;;
53751;SDS011;41095;53.090;6.692;2023-04-08T02:37:56;17.20;;;15.23;;
53751;SDS011;41095;53.090;6.692;2023-04-08T02:42:54;18.87;;;14.03;;
53751;SDS011;41095;53.090;6.692;2023-04-08T02:45:20;18.52;;;15.90;;
53751;SDS011;41095;53.090;6.692;2023-04-08T02:47:47;19.45;;;16.05;;
53751;SDS011;41095;53.090;6.692;2023-04-08T02:50:13;18.85;;;16.27;;
53751;SDS011;41095;53.090;6.692;2023-04-08T02:52:38;17.98;;;16.10;;
53751;SDS011;41095;53.090;6.692;2023-04-08T02:55:05;21.80;;;16.23;;
53751;SDS011;41095;53.090;6.692;2023-04-08T02:57:34;17.00;;;15.20;;
53751;SDS011;41095;53.090;6.692;2023-04-08T03:00:01;23.85;;;17.70;;
53751;SDS011;41095;53.090;6.692;2023-04-08T03:02:28;22.05;;;16.58;;
53751;SDS011;41095;53.090;6.692;2023-04-08T03:04:54;19.38;;;16.58;;
53751;SDS011;41095;53.090;6.692;2023-04-08T03:07:19;19.13;;;16.23;;
53751;SDS011;41095;53.090;6.692;2023-04-08T03:09:45;20.48;;;16.88;;
53751;SDS011;41095;53.090;6.692;2023-04-08T03:12:11;21.85;;;16.65;;
53751;SDS011;41095;53.090;6.692;2023-04-08T03:14:36;23.42;;;17.75;;
53751;SDS011;41095;53.090;6.692;2023-04-08T03:17:02;19.20;;;17.20;;
53751;SDS011;41095;53.090;6.692;2023-04-08T03:19:28;18.30;;;16.38;;
53751;SDS011;41095;53.090;6.692;2023-04-08T03:21:53;22.75;;;17.65;;
53751;SDS011;41095;53.090;6.692;2023-04-08T03:24:19;20.10;;;17.08;;
53751;SDS011;41095;53.090;6.692;2023-04-08T03:26:44;22.08;;;16.67;;
53751;SDS011;41095;53.090;6.692;2023-04-08T03:29:10;18.70;;;15.80;;
53751;SDS011;41095;53.090;6.692;2023-04-08T03:31:36;22.05;;;16.00;;
53751;SDS011;41095;53.090;6.692;2023-04-08T03:34:01;21.05;;;16.02;;
53751;SDS011;41095;53.090;6.692;2023-04-08T03:36:27;21.30;;;17.30;;
53751;SDS011;41095;53.090;6.692;2023-04-08T03:38:53;19.35;;;17.27;;
53751;SDS011;41095;53.090;6.692;2023-04-08T03:41:18;21.33;;;16.50;;
53751;SDS011;41095;53.090;6.692;2023-04-08T03:43:45;24.05;;;15.63;;
53751;SDS011;41095;53.090;6.692;2023-04-08T03:46:10;22.00;;;15.48;;
53751;SDS011;41095;53.090;6.692;2023-04-08T03:48:36;22.20;;;16.40;;
53751;SDS011;41095;53.090;6.692;2023-04-08T03:51:02;22.85;;;18.77;;
53751;SDS011;41095;53.090;6.692;2023-04-08T03:53:27;22.38;;;18.52;;
53751;SDS011;41095;53.090;6.692;2023-04-08T03:55:53;23.35;;;17.70;;
53751;SDS011;41095;53.090;6.692;2023-04-08T03:58:20;20.23;;;16.85;;
53751;SDS011;41095;53.090;6.692;2023-04-08T04:00:46;25.00;;;19.48;;
53751;SDS011;41095;53.090;6.692;2023-04-08T04:03:12;21.48;;;16.67;;
53751;SDS011;41095;53.090;6.692;2023-04-08T04:05:38;19.98;;;16.65;;
53751;SDS011;41095;53.090;6.692;2023-04-08T04:08:04;22.40;;;15.77;;
53751;SDS011;41095;53.090;6.692;2023-04-08T04:10:30;21.35;;;17.05;;
53751;SDS011;41095;53.090;6.692;2023-04-08T04:12:56;24.85;;;18.23;;
53751;SDS011;41095;53.090;6.692;2023-04-08T04:15:21;23.90;;;16.92;;
53751;SDS011;41095;53.090;6.692;2023-04-08T04:17:47;21.35;;;17.10;;
53751;SDS011;41095;53.090;6.692;2023-04-08T04:20:15;21.38;;;17.52;;
53751;SDS011;41095;53.090;6.692;2023-04-08T04:22:43;23.05;;;17.45;;
53751;SDS011;41095;53.090;6.692;2023-04-08T04:25:09;21.27;;;17.23;;
53751;SDS011;41095;53.090;6.692;2023-04-08T04:27:35;21.60;;;19.38;;
53751;SDS011;41095;53.090;6.692;2023-04-08T04:30:01;22.75;;;18.08;;
53751;SDS011;41095;53.090;6.692;2023-04-08T04:32:27;27.15;;;19.52;;
53751;SDS011;41095;53.090;6.692;2023-04-08T04:34:53;19.67;;;16.65;;
53751;SDS011;41095;53.090;6.692;2023-04-08T04:37:19;24.73;;;19.02;;
53751;SDS011;41095;53.090;6.692;2023-04-08T04:39:44;24.02;;;19.05;;
53751;SDS011;41095;53.090;6.692;2023-04-08T04:42:10;25.83;;;18.88;;
53751;SDS011;41095;53.090;6.692;2023-04-08T04:44:36;25.08;;;18.80;;
53751;SDS011;41095;53.090;6.692;2023-04-08T04:47:02;28.08;;;20.02;;
53751;SDS011;41095;53.090;6.692;2023-04-08T04:49:28;26.40;;;20.10;;
53751;SDS011;41095;53.090;6.692;2023-04-08T04:51:53;28.33;;;21.73;;
53751;SDS011;41095;53.090;6.692;2023-04-08T04:54:19;27.38;;;21.42;;
53751;SDS011;41095;53.090;6.692;2023-04-08T04:56:45;28.92;;;20.63;;
53751;SDS011;41095;53.090;6.692;2023-04-08T04:59:11;24.92;;;20.20;;
53751;SDS011;41095;53.090;6.692;2023-04-08T05:01:36;28.50;;;21.10;;
53751;SDS011;41095;53.090;6.692;2023-04-08T05:04:05;23.13;;;20.13;;
53751;SDS011;41095;53.090;6.692;2023-04-08T05:06:31;29.00;;;21.58;;
53751;SDS011;41095;53.090;6.692;2023-04-08T05:08:57;28.10;;;20.42;;
53751;SDS011;41095;53.090;6.692;2023-04-08T05:11:23;24.17;;;19.58;;
53751;SDS011;41095;53.090;6.692;2023-04-08T05:13:49;26.20;;;19.00;;
53751;SDS011;41095;53.090;6.692;2023-04-08T05:16:15;27.83;;;20.75;;
53751;SDS011;41095;53.090;6.692;2023-04-08T05:18:41;24.58;;;19.55;;
53751;SDS011;41095;53.090;6.692;2023-04-08T05:21:06;24.50;;;19.20;;
53751;SDS011;41095;53.090;6.692;2023-04-08T05:23:33;26.23;;;19.42;;
53751;SDS011;41095;53.090;6.692;2023-04-08T05:26:00;23.73;;;19.20;;
53751;SDS011;41095;53.090;6.692;2023-04-08T05:28:25;25.23;;;19.10;;
53751;SDS011;41095;53.090;6.692;2023-04-08T05:30:52;24.77;;;19.20;;
53751;SDS011;41095;53.090;6.692;2023-04-08T05:33:18;28.38;;;21.20;;
53751;SDS011;41095;53.090;6.692;2023-04-08T05:35:44;27.73;;;20.15;;
53751;SDS011;41095;53.090;6.692;2023-04-08T05:38:10;28.00;;;19.88;;
53751;SDS011;41095;53.090;6.692;2023-04-08T05:40:36;27.23;;;22.25;;
53751;SDS011;41095;53.090;6.692;2023-04-08T05:43:02;25.63;;;20.30;;
53751;SDS011;41095;53.090;6.692;2023-04-08T05:45:27;26.08;;;21.52;;
53751;SDS011;41095;53.090;6.692;2023-04-08T05:47:53;28.10;;;21.67;;
53751;SDS011;41095;53.090;6.692;2023-04-08T05:50:19;28.42;;;21.38;;
53751;SDS011;41095;53.090;6.692;2023-04-08T05:52:45;27.08;;;20.33;;
53751;SDS011;41095;53.090;6.692;2023-04-08T05:55:14;28.52;;;22.00;;
53751;SDS011;41095;53.090;6.692;2023-04-08T05:57:40;28.52;;;21.05;;
53751;SDS011;41095;53.090;6.692;2023-04-08T06:00:06;30.88;;;22.58;;
53751;SDS011;41095;53.090;6.692;2023-04-08T06:02:34;27.40;;;20.20;;
53751;SDS011;41095;53.090;6.692;2023-04-08T06:05:01;27.63;;;22.13;;
53751;SDS011;41095;53.090;6.692;2023-04-08T06:07:27;26.33;;;21.55;;
53751;SDS011;41095;53.090;6.692;2023-04-08T06:09:53;27.40;;;21.17;;
53751;SDS011;41095;53.090;6.692;2023-04-08T06:12:19;26.73;;;21.92;;
53751;SDS011;41095;53.090;6.692;2023-04-08T06:14:45;24.83;;;21.73;;
53751;SDS011;41095;53.090;6.692;2023-04-08T06:17:11;30.70;;;22.15;;
53751;SDS011;41095;53.090;6.692;2023-04-08T06:19:36;25.58;;;22.23;;
53751;SDS011;41095;53.090;6.692;2023-04-08T06:22:02;25.08;;;19.65;;
53751;SDS011;41095;53.090;6.692;2023-04-08T06:24:28;30.80;;;24.63;;
53751;SDS011;41095;53.090;6.692;2023-04-08T06:26:54;29.30;;;21.42;;
53751;SDS011;41095;53.090;6.692;2023-04-08T06:29:20;31.95;;;23.15;;
53751;SDS011;41095;53.090;6.692;2023-04-08T06:31:47;26.80;;;22.35;;
53751;SDS011;41095;53.090;6.692;2023-04-08T06:34:13;28.13;;;21.80;;
53751;SDS011;41095;53.090;6.692;2023-04-08T06:36:39;29.25;;;21.25;;
53751;SDS011;41095;53.090;6.692;2023-04-08T06:39:05;28.90;;;21.27;;
53751;SDS011;41095;53.090;6.692;2023-04-08T06:41:31;25.90;;;20.60;;
53751;SDS011;41095;53.090;6.692;2023-04-08T06:43:57;27.00;;;20.45;;
53751;SDS011;41095;53.090;6.692;2023-04-08T06:46:23;26.42;;;20.10;;
53751;SDS011;41095;53.090;6.692;2023-04-08T06:48:49;23.88;;;19.60;;
53751;SDS011;41095;53.090;6.692;2023-04-08T06:51:15;24.33;;;19.52;;
53751;SDS011;41095;53.090;6.692;2023-04-08T06:53:41;26.70;;;18.80;;
53751;SDS011;41095;53.090;6.692;2023-04-08T06:56:06;25.13;;;18.70;;
53751;SDS011;41095;53.090;6.692;2023-04-08T06:58:32;22.88;;;17.98;;
53751;SDS011;41095;53.090;6.692;2023-04-08T07:00:58;23.30;;;17.88;;
53751;SDS011;41095;53.090;6.692;2023-04-08T07:03:24;20.27;;;16.48;;
53751;SDS011;41095;53.090;6.692;2023-04-08T07:05:50;17.73;;;14.25;;
53751;SDS011;41095;53.090;6.692;2023-04-08T07:08:17;19.02;;;15.43;;
53751;SDS011;41095;53.090;6.692;2023-04-08T07:10:42;20.90;;;15.23;;
53751;SDS011;41095;53.090;6.692;2023-04-08T07:13:08;22.02;;;15.05;;
53751;SDS011;41095;53.090;6.692;2023-04-08T07:15:35;18.50;;;15.25;;
53751;SDS011;41095;53.090;6.692;2023-04-08T07:18:01;22.60;;;15.07;;
53751;SDS011;41095;53.090;6.692;2023-04-08T07:20:28;20.88;;;15.57;;
53751;SDS011;41095;53.090;6.692;2023-04-08T07:22:54;21.23;;;16.27;;
53751;SDS011;41095;53.090;6.692;2023-04-08T07:25:20;20.52;;;15.70;;
53751;SDS011;41095;53.090;6.692;2023-04-08T07:27:46;18.92;;;15.15;;
53751;SDS011;41095;53.090;6.692;2023-04-08T07:30:11;18.20;;;14.55;;
53751;SDS011;41095;53.090;6.692;2023-04-08T07:32:37;18.50;;;15.57;;
53751;SDS011;41095;53.090;6.692;2023-04-08T07:35:03;19.60;;;15.20;;
53751;SDS011;41095;53.090;6.692;2023-04-08T07:37:29;21.52;;;17.10;;
53751;SDS011;41095;53.090;6.692;2023-04-08T07:39:55;19.83;;;16.13;;
53751;SDS011;41095;53.090;6.692;2023-04-08T07:42:20;21.65;;;16.33;;
53751;SDS011;41095;53.090;6.692;2023-04-08T07:44:46;20.55;;;16.10;;
53751;SDS011;41095;53.090;6.692;2023-04-08T07:47:12;23.98;;;16.10;;
53751;SDS011;41095;53.090;6.692;2023-04-08T07:49:39;18.75;;;13.90;;
53751;SDS011;41095;53.090;6.692;2023-04-08T07:52:05;20.85;;;14.80;;
53751;SDS011;41095;53.090;6.692;2023-04-08T07:54:31;18.00;;;15.77;;
53751;SDS011;41095;53.090;6.692;2023-04-08T07:57:00;17.92;;;15.02;;
53751;SDS011;41095;53.090;6.692;2023-04-08T07:59:26;17.95;;;14.70;;
53751;SDS011;41095;53.090;6.692;2023-04-08T08:01:52;20.42;;;15.80;;
53751;SDS011;41095;53.090;6.692;2023-04-08T08:04:18;19.38;;;14.63;;
53751;SDS011;41095;53.090;6.692;2023-04-08T08:06:43;16.02;;;12.77;;
53751;SDS011;41095;53.090;6.692;2023-04-08T08:09:09;17.80;;;13.45;;
53751;SDS011;41095;53.090;6.692;2023-04-08T08:11:35;19.75;;;14.10;;
53751;SDS011;41095;53.090;6.692;2023-04-08T08:14:01;17.90;;;12.70;;
53751;SDS011;41095;53.090;6.692;2023-04-08T08:16:27;17.52;;;12.88;;
53751;SDS011;41095;53.090;6.692;2023-04-08T08:18:53;14.15;;;11.48;;
53751;SDS011;41095;53.090;6.692;2023-04-08T08:21:19;16.27;;;11.77;;
53751;SDS011;41095;53.090;6.692;2023-04-08T08:23:45;16.00;;;11.93;;
53751;SDS011;41095;53.090;6.692;2023-04-08T08:26:11;12.15;;;10.23;;
53751;SDS011;41095;53.090;6.692;2023-04-08T08:28:37;14.68;;;10.75;;
53751;SDS011;41095;53.090;6.692;2023-04-08T08:31:03;14.57;;;10.52;;
53751;SDS011;41095;53.090;6.692;2023-04-08T08:33:30;13.68;;;9.57;;
53751;SDS011;41095;53.090;6.692;2023-04-08T08:35:56;14.93;;;11.82;;
53751;SDS011;41095;53.090;6.692;2023-04-08T08:38:22;14.38;;;10.80;;
53751;SDS011;41095;53.090;6.692;2023-04-08T08:40:55;15.23;;;11.00;;
53751;SDS011;41095;53.090;6.692;2023-04-08T08:43:22;12.73;;;10.45;;
53751;SDS011;41095;53.090;6.692;2023-04-08T08:45:48;15.43;;;11.35;;
53751;SDS011;41095;53.090;6.692;2023-04-08T08:48:14;15.07;;;9.98;;
53751;SDS011;41095;53.090;6.692;2023-04-08T08:50:40;19.55;;;12.15;;
53751;SDS011;41095;53.090;6.692;2023-04-08T08:53:05;17.17;;;12.07;;
53751;SDS011;41095;53.090;6.692;2023-04-08T08:55:31;14.10;;;10.73;;
53751;SDS011;41095;53.090;6.692;2023-04-08T08:58:00;15.27;;;10.07;;
53751;SDS011;41095;53.090;6.692;2023-04-08T09:00:33;14.57;;;11.40;;
53751;SDS011;41095;53.090;6.692;2023-04-08T09:03:22;16.08;;;12.25;;
53751;SDS011;41095;53.090;6.692;2023-04-08T09:05:57;15.35;;;12.25;;
53751;SDS011;41095;53.090;6.692;2023-04-08T09:08:29;16.10;;;11.70;;
53751;SDS011;41095;53.090;6.692;2023-04-08T09:11:10;16.10;;;11.60;;
53751;SDS011;41095;53.090;6.692;2023-04-08T09:13:40;13.98;;;12.07;;
53751;SDS011;41095;53.090;6.692;2023-04-08T09:16:08;18.00;;;11.82;;
53751;SDS011;41095;53.090;6.692;2023-04-08T09:18:35;13.98;;;12.35;;
53751;SDS011;41095;53.090;6.692;2023-04-08T09:21:03;16.15;;;12.93;;
53751;SDS011;41095;53.090;6.692;2023-04-08T09:23:43;15.15;;;13.55;;
53751;SDS011;41095;53.090;6.692;2023-04-08T09:28:37;18.80;;;13.68;;
53751;SDS011;41095;53.090;6.692;2023-04-08T09:31:23;16.63;;;12.90;;
53751;SDS011;41095;53.090;6.692;2023-04-08T09:33:53;14.90;;;13.27;;
53751;SDS011;41095;53.090;6.692;2023-04-08T09:36:21;15.45;;;11.57;;
53751;SDS011;41095;53.090;6.692;2023-04-08T09:38:47;13.27;;;11.10;;
53751;SDS011;41095;53.090;6.692;2023-04-08T09:41:16;14.75;;;11.95;;
53751;SDS011;41095;53.090;6.692;2023-04-08T09:43:52;16.42;;;12.85;;
53751;SDS011;41095;53.090;6.692;2023-04-08T09:49:11;14.27;;;11.35;;
53751;SDS011;41095;53.090;6.692;2023-04-08T09:51:49;11.15;;;9.85;;
53751;SDS011;41095;53.090;6.692;2023-04-08T09:54:36;11.93;;;10.52;;
53751;SDS011;41095;53.090;6.692;2023-04-08T09:57:08;13.98;;;9.63;;
53751;SDS011;41095;53.090;6.692;2023-04-08T09:59:37;14.05;;;10.10;;
53751;SDS011;41095;53.090;6.692;2023-04-08T10:02:12;13.15;;;9.70;;
53751;SDS011;41095;53.090;6.692;2023-04-08T10:04:44;14.65;;;10.23;;
53751;SDS011;41095;53.090;6.692;2023-04-08T10:07:13;14.30;;;11.48;;
53751;SDS011;41095;53.090;6.692;2023-04-08T10:09:39;14.73;;;10.63;;
53751;SDS011;41095;53.090;6.692;2023-04-08T10:12:07;15.43;;;11.32;;
53751;SDS011;41095;53.090;6.692;2023-04-08T10:14:33;11.43;;;10.05;;
53751;SDS011;41095;53.090;6.692;2023-04-08T10:20:00;11.90;;;9.90;;
53751;SDS011;41095;53.090;6.692;2023-04-08T10:27:42;11.52;;;9.20;;
53751;SDS011;41095;53.090;6.692;2023-04-08T10:32:53;13.70;;;10.05;;
53751;SDS011;41095;53.090;6.692;2023-04-08T10:35:36;12.68;;;10.18;;
53751;SDS011;41095;53.090;6.692;2023-04-08T10:38:06;13.65;;;10.27;;
53751;SDS011;41095;53.090;6.692;2023-04-08T10:40:36;12.13;;;9.18;;
53751;SDS011;41095;53.090;6.692;2023-04-08T10:43:07;15.02;;;10.68;;
53751;SDS011;41095;53.090;6.692;2023-04-08T10:45:34;16.15;;;10.80;;
53751;SDS011;41095;53.090;6.692;2023-04-08T10:50:37;13.20;;;10.43;;
53751;SDS011;41095;53.090;6.692;2023-04-08T10:53:04;15.20;;;10.23;;
53751;SDS011;41095;53.090;6.692;2023-04-08T10:55:30;13.98;;;10.73;;
53751;SDS011;41095;53.090;6.692;2023-04-08T10:58:06;15.68;;;11.55;;
53751;SDS011;41095;53.090;6.692;2023-04-08T11:00:33;14.00;;;10.63;;
53751;SDS011;41095;53.090;6.692;2023-04-08T11:03:04;15.57;;;10.88;;
53751;SDS011;41095;53.090;6.692;2023-04-08T11:05:31;16.27;;;12.38;;
53751;SDS011;41095;53.090;6.692;2023-04-08T11:07:58;14.10;;;11.00;;
53751;SDS011;41095;53.090;6.692;2023-04-08T11:10:24;17.88;;;11.73;;
53751;SDS011;41095;53.090;6.692;2023-04-08T11:12:51;15.38;;;11.68;;
53751;SDS011;41095;53.090;6.692;2023-04-08T11:15:19;18.73;;;11.95;;
53751;SDS011;41095;53.090;6.692;2023-04-08T11:17:45;17.38;;;12.68;;
53751;SDS011;41095;53.090;6.692;2023-04-08T11:20:12;19.40;;;13.05;;
53751;SDS011;41095;53.090;6.692;2023-04-08T11:22:38;19.52;;;13.70;;
53751;SDS011;41095;53.090;6.692;2023-04-08T11:25:04;19.52;;;12.90;;
53751;SDS011;41095;53.090;6.692;2023-04-08T11:27:32;19.42;;;13.75;;
53751;SDS011;41095;53.090;6.692;2023-04-08T11:29:59;23.60;;;15.23;;
53751;SDS011;41095;53.090;6.692;2023-04-08T11:32:26;20.52;;;14.50;;
53751;SDS011;41095;53.090;6.692;2023-04-08T11:34:53;22.23;;;14.93;;
53751;SDS011;41095;53.090;6.692;2023-04-08T11:37:19;22.63;;;15.27;;
53751;SDS011;41095;53.090;6.692;2023-04-08T11:39:45;26.10;;;16.70;;
53751;SDS011;41095;53.090;6.692;2023-04-08T11:42:32;26.92;;;16.85;;
53751;SDS011;41095;53.090;6.692;2023-04-08T11:44:57;25.92;;;17.30;;
53751;SDS011;41095;53.090;6.692;2023-04-08T11:47:30;27.00;;;18.48;;
53751;SDS011;41095;53.090;6.692;2023-04-08T11:49:57;25.58;;;16.67;;
53751;SDS011;41095;53.090;6.692;2023-04-08T11:52:39;25.35;;;17.30;;
53751;SDS011;41095;53.090;6.692;2023-04-08T11:55:09;28.40;;;17.38;;
53751;SDS011;41095;53.090;6.692;2023-04-08T11:57:36;25.30;;;18.58;;
53751;SDS011;41095;53.090;6.692;2023-04-08T12:00:06;26.23;;;17.67;;
53751;SDS011;41095;53.090;6.692;2023-04-08T12:02:32;27.45;;;16.95;;
53751;SDS011;41095;53.090;6.692;2023-04-08T12:04:58;26.25;;;17.02;;
53751;SDS011;41095;53.090;6.692;2023-04-08T12:07:23;22.52;;;16.02;;
53751;SDS011;41095;53.090;6.692;2023-04-08T12:09:49;25.05;;;15.00;;
53751;SDS011;41095;53.090;6.692;2023-04-08T12:12:15;24.00;;;15.52;;
53751;SDS011;41095;53.090;6.692;2023-04-08T12:14:41;22.05;;;15.35;;
53751;SDS011;41095;53.090;6.692;2023-04-08T12:17:06;25.08;;;16.42;;
53751;SDS011;41095;53.090;6.692;2023-04-08T12:19:32;24.20;;;16.20;;
53751;SDS011;41095;53.090;6.692;2023-04-08T12:21:58;19.08;;;13.52;;
53751;SDS011;41095;53.090;6.692;2023-04-08T12:24:23;23.77;;;15.13;;
53751;SDS011;41095;53.090;6.692;2023-04-08T12:26:49;26.08;;;15.52;;
53751;SDS011;41095;53.090;6.692;2023-04-08T12:29:15;21.77;;;16.25;;
53751;SDS011;41095;53.090;6.692;2023-04-08T12:31:40;24.52;;;17.58;;
53751;SDS011;41095;53.090;6.692;2023-04-08T12:34:06;24.65;;;17.13;;
53751;SDS011;41095;53.090;6.692;2023-04-08T12:36:32;27.13;;;17.90;;
53751;SDS011;41095;53.090;6.692;2023-04-08T12:38:57;26.85;;;17.75;;
53751;SDS011;41095;53.090;6.692;2023-04-08T12:41:23;24.65;;;18.15;;
53751;SDS011;41095;53.090;6.692;2023-04-08T12:43:49;24.30;;;17.63;;
53751;SDS011;41095;53.090;6.692;2023-04-08T12:46:14;24.83;;;16.13;;
53751;SDS011;41095;53.090;6.692;2023-04-08T12:48:40;24.80;;;17.40;;
53751;SDS011;41095;53.090;6.692;2023-04-08T12:51:06;29.20;;;18.95;;
53751;SDS011;41095;53.090;6.692;2023-04-08T12:53:34;26.13;;;18.45;;
53751;SDS011;41095;53.090;6.692;2023-04-08T12:56:00;23.95;;;17.15;;
53751;SDS011;41095;53.090;6.692;2023-04-08T12:58:25;24.08;;;16.20;;
53751;SDS011;41095;53.090;6.692;2023-04-08T13:00:51;22.98;;;17.33;;
53751;SDS011;41095;53.090;6.692;2023-04-08T13:03:17;23.20;;;15.50;;
53751;SDS011;41095;53.090;6.692;2023-04-08T13:05:42;23.92;;;16.80;;
53751;SDS011;41095;53.090;6.692;2023-04-08T13:08:08;22.98;;;15.93;;
53751;SDS011;41095;53.090;6.692;2023-04-08T13:10:36;24.80;;;17.50;;
53751;SDS011;41095;53.090;6.692;2023-04-08T13:13:02;27.42;;;17.88;;
53751;SDS011;41095;53.090;6.692;2023-04-08T13:15:28;23.85;;;16.48;;
53751;SDS011;41095;53.090;6.692;2023-04-08T13:17:53;22.02;;;17.75;;
53751;SDS011;41095;53.090;6.692;2023-04-08T13:20:19;28.25;;;19.00;;
53751;SDS011;41095;53.090;6.692;2023-04-08T13:22:49;24.48;;;17.13;;
53751;SDS011;41095;53.090;6.692;2023-04-08T13:25:18;22.50;;;18.48;;
53751;SDS011;41095;53.090;6.692;2023-04-08T13:27:43;27.50;;;18.45;;
53751;SDS011;41095;53.090;6.692;2023-04-08T13:30:09;24.35;;;16.40;;
53751;SDS011;41095;53.090;6.692;2023-04-08T13:32:35;26.63;;;18.65;;
53751;SDS011;41095;53.090;6.692;2023-04-08T13:35:01;22.88;;;17.92;;
53751;SDS011;41095;53.090;6.692;2023-04-08T13:37:27;26.58;;;19.40;;
53751;SDS011;41095;53.090;6.692;2023-04-08T13:39:53;25.85;;;19.75;;
53751;SDS011;41095;53.090;6.692;2023-04-08T13:42:18;25.40;;;18.10;;
53751;SDS011;41095;53.090;6.692;2023-04-08T13:44:44;26.75;;;18.60;;
53751;SDS011;41095;53.090;6.692;2023-04-08T13:47:10;24.85;;;20.35;;
53751;SDS011;41095;53.090;6.692;2023-04-08T13:49:36;28.98;;;20.00;;
53751;SDS011;41095;53.090;6.692;2023-04-08T13:52:02;28.52;;;20.90;;
53751;SDS011;41095;53.090;6.692;2023-04-08T13:54:28;29.70;;;20.85;;
53751;SDS011;41095;53.090;6.692;2023-04-08T13:56:53;30.00;;;21.45;;
53751;SDS011;41095;53.090;6.692;2023-04-08T13:59:19;28.17;;;21.50;;
53751;SDS011;41095;53.090;6.692;2023-04-08T14:01:45;34.15;;;22.88;;
53751;SDS011;41095;53.090;6.692;2023-04-08T14:04:11;29.55;;;22.23;;
53751;SDS011;41095;53.090;6.692;2023-04-08T14:06:36;32.95;;;23.35;;
53751;SDS011;41095;53.090;6.692;2023-04-08T14:09:02;29.33;;;22.13;;
53751;SDS011;41095;53.090;6.692;2023-04-08T14:11:28;29.65;;;22.02;;
53751;SDS011;41095;53.090;6.692;2023-04-08T14:13:53;28.98;;;22.10;;
53751;SDS011;41095;53.090;6.692;2023-04-08T14:16:19;26.98;;;22.45;;
53751;SDS011;41095;53.090;6.692;2023-04-08T14:18:45;33.85;;;25.50;;
53751;SDS011;41095;53.090;6.692;2023-04-08T14:21:10;33.55;;;25.60;;
53751;SDS011;41095;53.090;6.692;2023-04-08T14:23:38;33.72;;;22.60;;
53751;SDS011;41095;53.090;6.692;2023-04-08T14:26:04;31.35;;;23.77;;
53751;SDS011;41095;53.090;6.692;2023-04-08T14:28:30;28.60;;;21.92;;
53751;SDS011;41095;53.090;6.692;2023-04-08T14:30:56;35.65;;;26.33;;
53751;SDS011;41095;53.090;6.692;2023-04-08T14:33:22;32.60;;;25.05;;
53751;SDS011;41095;53.090;6.692;2023-04-08T14:35:47;31.55;;;23.60;;
53751;SDS011;41095;53.090;6.692;2023-04-08T14:38:13;33.55;;;24.70;;
53751;SDS011;41095;53.090;6.692;2023-04-08T14:40:39;32.85;;;25.30;;
53751;SDS011;41095;53.090;6.692;2023-04-08T14:43:04;35.08;;;26.25;;
53751;SDS011;41095;53.090;6.692;2023-04-08T14:45:30;34.45;;;27.92;;
53751;SDS011;41095;53.090;6.692;2023-04-08T14:47:57;37.03;;;26.65;;
53751;SDS011;41095;53.090;6.692;2023-04-08T14:50:22;38.63;;;28.73;;
53751;SDS011;41095;53.090;6.692;2023-04-08T14:52:48;37.13;;;29.15;;
53751;SDS011;41095;53.090;6.692;2023-04-08T14:55:14;37.33;;;27.77;;
53751;SDS011;41095;53.090;6.692;2023-04-08T14:57:40;36.63;;;28.30;;
53751;SDS011;41095;53.090;6.692;2023-04-08T15:00:06;38.72;;;27.90;;